createdAt,value
2018-07-06T00:02:00.829Z,18.95
2018-07-06T00:04:42.219Z,18.95
2018-07-06T00:07:23.436Z,18.94
2018-07-06T00:10:04.997Z,18.90
2018-07-06T00:12:46.218Z,18.87
2018-07-06T00:15:27.247Z,18.88
2018-07-06T00:18:08.790Z,18.87
2018-07-06T00:20:49.350Z,18.87
2018-07-06T00:23:30.685Z,18.87
2018-07-06T00:26:11.967Z,18.88
2018-07-06T00:28:53.437Z,18.82
2018-07-06T00:31:34.839Z,18.80
2018-07-06T00:34:16.228Z,18.76
2018-07-06T00:36:58.436Z,18.75
2018-07-06T00:39:39.666Z,18.75
2018-07-06T00:42:20.601Z,18.73
2018-07-06T00:45:02.013Z,18.73
2018-07-06T00:47:43.557Z,18.69
2018-07-06T00:50:24.781Z,18.62
2018-07-06T00:53:05.920Z,18.62
2018-07-06T00:55:47.306Z,18.60
2018-07-06T00:58:28.693Z,18.56
2018-07-06T01:01:10.083Z,18.50
2018-07-06T01:03:51.725Z,18.48
2018-07-06T01:06:33.258Z,18.47
2018-07-06T01:09:14.237Z,18.50
2018-07-06T01:11:55.466Z,18.45
2018-07-06T01:14:36.946Z,18.43
2018-07-06T01:17:17.747Z,18.43
2018-07-06T01:19:58.952Z,18.46
2018-07-06T01:22:40.205Z,18.43
2018-07-06T01:25:21.043Z,18.38
2018-07-06T01:28:02.127Z,18.35
2018-07-06T01:30:43.663Z,18.37
2018-07-06T01:33:24.647Z,18.38
2018-07-06T01:36:05.874Z,18.36
2018-07-06T01:38:47.425Z,18.38
2018-07-06T01:41:28.295Z,18.36
2018-07-06T01:44:09.781Z,18.35
2018-07-06T01:46:51.139Z,18.36
2018-07-06T01:49:32.488Z,18.37
2018-07-06T01:52:13.933Z,18.36
2018-07-06T01:54:55.344Z,18.32
2018-07-06T01:57:36.634Z,18.28
2018-07-06T02:00:17.681Z,18.21
2018-07-06T02:02:58.653Z,18.17
2018-07-06T02:05:39.902Z,18.16
2018-07-06T02:08:20.994Z,18.13
2018-07-06T02:11:02.228Z,18.11
2018-07-06T02:13:43.609Z,18.12
2018-07-06T02:16:24.756Z,18.13
2018-07-06T02:19:06.142Z,18.16
2018-07-06T02:21:47.116Z,18.17
2018-07-06T02:24:28.505Z,18.14
2018-07-06T02:27:09.371Z,18.15
2018-07-06T02:29:50.341Z,18.13
2018-07-06T02:32:32.498Z,18.13
2018-07-06T02:35:13.904Z,18.11
2018-07-06T02:37:55.405Z,18.10
2018-07-06T02:40:36.400Z,18.14
2018-07-06T02:43:17.637Z,18.12
2018-07-06T02:45:59.464Z,18.12
2018-07-06T02:48:40.413Z,18.17
2018-07-06T02:51:21.316Z,18.21
2018-07-06T02:54:02.922Z,18.25
2018-07-06T02:56:43.903Z,18.26
2018-07-06T02:59:24.865Z,18.27
2018-07-06T03:02:06.509Z,18.26
2018-07-06T03:04:47.876Z,18.28
2018-07-06T03:07:29.430Z,18.30
2018-07-06T03:10:10.660Z,18.29
2018-07-06T03:12:51.551Z,18.31
2018-07-06T03:15:32.185Z,18.31
2018-07-06T03:18:13.592Z,18.29
2018-07-06T03:20:54.678Z,18.26
2018-07-06T03:23:35.685Z,18.21
2018-07-06T03:26:17.071Z,18.21
2018-07-06T03:28:57.874Z,18.20
2018-07-06T03:31:38.583Z,18.16
2018-07-06T03:34:19.491Z,18.16
2018-07-06T03:36:59.990Z,18.10
2018-07-06T03:39:41.082Z,18.06
2018-07-06T03:42:21.901Z,18.09
2018-07-06T03:45:03.493Z,18.09
2018-07-06T03:47:44.887Z,18.13
2018-07-06T03:50:25.737Z,18.16
2018-07-06T03:53:07.121Z,18.16
2018-07-06T03:55:48.521Z,18.12
2018-07-06T03:58:29.913Z,18.10
2018-07-06T04:01:11.301Z,18.10
2018-07-06T04:03:52.732Z,18.09
2018-07-06T04:06:34.018Z,18.09
2018-07-06T04:09:15.586Z,18.12
2018-07-06T04:11:56.765Z,18.16
2018-07-06T04:14:38.197Z,18.18
2018-07-06T04:17:19.668Z,18.17
2018-07-06T04:20:00.941Z,18.16
2018-07-06T04:22:42.464Z,18.12
2018-07-06T04:25:23.860Z,18.14
2018-07-06T04:28:04.434Z,18.18
2018-07-06T04:30:45.740Z,18.22
2018-07-06T04:33:26.788Z,18.24
2018-07-06T04:36:08.480Z,18.26
2018-07-06T04:38:49.557Z,18.28
2018-07-06T04:41:30.796Z,18.24
2018-07-06T04:44:11.901Z,18.27
2018-07-06T04:46:53.130Z,18.30
2018-07-06T04:49:34.163Z,18.29
2018-07-06T04:52:15.459Z,18.30
2018-07-06T04:54:56.322Z,18.29
2018-07-06T04:57:37.811Z,18.27
2018-07-06T05:00:18.723Z,18.29
2018-07-06T05:02:59.997Z,18.29
2018-07-06T05:05:40.510Z,18.31
2018-07-06T05:08:22.124Z,18.34
2018-07-06T05:11:03.516Z,18.29
2018-07-06T05:13:44.696Z,18.23
2018-07-06T05:16:26.101Z,18.23
2018-07-06T05:19:07.136Z,18.24
2018-07-06T05:21:48.144Z,18.24
2018-07-06T05:24:29.508Z,18.23
2018-07-06T05:27:10.634Z,18.18
2018-07-06T05:29:51.853Z,18.19
2018-07-06T05:32:33.360Z,18.20
2018-07-06T05:35:14.124Z,18.21
2018-07-06T05:37:54.807Z,18.15
2018-07-06T05:40:36.126Z,18.10
2018-07-06T05:43:16.732Z,18.11
2018-07-06T05:45:58.125Z,18.05
2018-07-06T05:48:39.059Z,18.05
2018-07-06T05:51:20.603Z,18.07
2018-07-06T05:54:01.583Z,18.13
2018-07-06T05:56:42.951Z,18.12
2018-07-06T05:59:23.686Z,18.14
2018-07-06T06:02:05.265Z,18.17
2018-07-06T06:04:46.684Z,18.12
2018-07-06T06:07:21.138Z,18.15
2018-07-06T06:09:51.804Z,18.10
2018-07-06T06:12:23.780Z,18.09
2018-07-06T06:14:55.092Z,18.11
2018-07-06T06:17:26.024Z,18.13
2018-07-06T06:19:56.705Z,18.19
2018-07-06T06:22:27.081Z,18.18
2018-07-06T06:24:57.660Z,18.18
2018-07-06T06:27:28.237Z,18.18
2018-07-06T06:29:58.857Z,18.17
2018-07-06T06:32:29.637Z,18.17
2018-07-06T06:35:01.537Z,18.17
2018-07-06T06:37:32.340Z,18.20
2018-07-06T06:40:03.168Z,18.23
2018-07-06T06:42:33.779Z,18.28
2018-07-06T06:45:04.277Z,18.31
2018-07-06T06:47:35.328Z,18.31
2018-07-06T06:50:05.597Z,18.40
2018-07-06T06:52:36.417Z,18.54
2018-07-06T06:55:07.065Z,18.54
2018-07-06T06:57:37.935Z,18.54
2018-07-06T07:00:08.947Z,18.55
2018-07-06T07:02:39.269Z,18.57
2018-07-06T07:05:09.814Z,18.58
2018-07-06T07:07:40.433Z,18.58
2018-07-06T07:10:11.341Z,18.58
2018-07-06T07:12:42.080Z,18.56
2018-07-06T07:15:12.876Z,18.57
2018-07-06T07:17:44.371Z,18.59
2018-07-06T07:20:15.125Z,18.63
2018-07-06T07:22:45.853Z,18.58
2018-07-06T07:25:16.527Z,18.61
2018-07-06T07:27:47.281Z,18.64
2018-07-06T07:30:18.171Z,18.69
2018-07-06T07:32:49.068Z,18.69
2018-07-06T07:35:19.603Z,18.68
2018-07-06T07:37:50.829Z,18.66
2018-07-06T07:40:21.074Z,18.66
2018-07-06T07:42:52.189Z,18.69
2018-07-06T07:45:22.910Z,18.71
2018-07-06T07:47:53.462Z,18.71
2018-07-06T07:50:24.025Z,18.72
2018-07-06T07:53:04.523Z,18.80
2018-07-06T07:55:34.879Z,18.86
2018-07-06T07:58:04.901Z,18.89
2018-07-06T08:00:35.638Z,18.93
2018-07-06T08:03:07.026Z,18.98
2018-07-06T08:05:36.904Z,18.92
2018-07-06T08:08:07.822Z,18.91
2018-07-06T08:10:37.696Z,18.90
2018-07-06T08:13:08.065Z,18.93
2018-07-06T08:15:38.377Z,18.98
2018-07-06T08:18:09.007Z,19.08
2018-07-06T08:20:39.846Z,19.16
2018-07-06T08:23:10.188Z,19.22
2018-07-06T08:25:40.748Z,19.35
2018-07-06T08:28:11.691Z,19.42
2018-07-06T08:30:42.494Z,19.56
2018-07-06T08:33:13.396Z,19.70
2018-07-06T08:35:54.583Z,19.68
2018-07-06T08:38:25.191Z,19.58
2018-07-06T08:40:55.771Z,19.65
2018-07-06T08:43:26.600Z,19.70
2018-07-06T08:45:57.254Z,19.80
2018-07-06T08:48:27.420Z,19.83
2018-07-06T08:50:58.315Z,19.88
2018-07-06T08:53:29.051Z,19.92
2018-07-06T08:55:59.719Z,20.04
2018-07-06T08:58:30.201Z,20.07
2018-07-06T09:01:01.330Z,20.18
2018-07-06T09:03:32.039Z,20.27
2018-07-06T09:06:03.105Z,20.24
2018-07-06T09:08:33.668Z,20.28
2018-07-06T09:11:04.060Z,20.34
2018-07-06T09:13:34.642Z,20.35
2018-07-06T09:16:05.266Z,20.36
2018-07-06T09:18:35.744Z,20.37
2018-07-06T09:21:06.349Z,20.46
2018-07-06T09:23:37.126Z,20.44
2018-07-06T09:26:08.096Z,20.55
2018-07-06T09:28:38.751Z,20.60
2018-07-06T09:31:09.694Z,20.62
2018-07-06T09:33:40.106Z,20.66
2018-07-06T09:36:10.473Z,20.74
2018-07-06T09:38:41.114Z,20.88
2018-07-06T09:41:11.507Z,20.97
2018-07-06T09:43:42.186Z,21.08
2018-07-06T09:46:12.845Z,21.11
2018-07-06T09:48:43.514Z,21.18
2018-07-06T09:51:14.353Z,21.20
2018-07-06T09:53:45.109Z,21.00
2018-07-06T09:56:15.843Z,20.86
2018-07-06T09:58:46.585Z,20.29
2018-07-06T10:01:16.961Z,20.15
2018-07-06T10:03:47.620Z,19.97
2018-07-06T10:06:18.176Z,19.98
2018-07-06T10:08:49.234Z,20.02
2018-07-06T10:11:20.368Z,20.10
2018-07-06T10:13:50.816Z,20.08
2018-07-06T10:16:21.557Z,20.11
2018-07-06T10:18:52.481Z,20.26
2018-07-06T10:21:24.233Z,20.42
2018-07-06T10:23:54.873Z,20.39
2018-07-06T10:26:24.942Z,20.58
2018-07-06T10:29:36.588Z,20.73
2018-07-06T10:32:22.023Z,20.81
2018-07-06T10:34:52.701Z,20.58
2018-07-06T10:37:23.357Z,20.27
2018-07-06T10:39:54.315Z,20.51
2018-07-06T10:42:24.535Z,20.62
2018-07-06T10:44:55.284Z,20.53
2018-07-06T10:47:26.365Z,20.66
2018-07-06T10:49:56.715Z,20.76
2018-07-06T10:52:27.226Z,20.88
2018-07-06T10:54:57.803Z,20.99
2018-07-06T10:57:28.444Z,21.04
2018-07-06T10:59:58.822Z,21.05
2018-07-06T11:02:29.849Z,21.30
2018-07-06T11:05:00.630Z,21.58
2018-07-06T11:07:31.262Z,21.76
2018-07-06T11:10:01.352Z,21.86
2018-07-06T11:12:31.295Z,21.88
2018-07-06T11:15:02.302Z,21.96
2018-07-06T11:17:32.730Z,22.11
2018-07-06T11:20:03.404Z,22.22
2018-07-06T11:22:34.070Z,22.28
2018-07-06T11:25:04.616Z,22.38
2018-07-06T11:27:35.996Z,22.32
2018-07-06T11:30:06.402Z,22.38
2018-07-06T11:32:36.995Z,22.50
2018-07-06T11:35:07.709Z,22.55
2018-07-06T11:37:38.473Z,22.50
2018-07-06T11:40:09.361Z,22.47
2018-07-06T11:42:40.096Z,22.34
2018-07-06T11:45:10.756Z,22.31
2018-07-06T11:47:41.100Z,22.24
2018-07-06T11:50:11.512Z,22.24
2018-07-06T11:52:42.474Z,22.29
2018-07-06T11:55:12.952Z,22.22
2018-07-06T11:57:43.580Z,22.13
2018-07-06T12:00:14.320Z,22.16
2018-07-06T12:02:44.921Z,21.89
2018-07-06T12:05:15.873Z,21.71
2018-07-06T12:07:46.600Z,21.07
2018-07-06T12:10:16.960Z,20.67
2018-07-06T12:12:47.626Z,20.38
2018-07-06T12:15:18.281Z,19.97
2018-07-06T12:17:48.956Z,19.78
2018-07-06T12:20:19.662Z,19.67
2018-07-06T12:22:50.606Z,19.81
2018-07-06T12:25:20.919Z,19.95
2018-07-06T12:27:51.309Z,20.08
2018-07-06T12:30:22.005Z,20.20
2018-07-06T12:32:52.752Z,20.33
2018-07-06T12:35:23.408Z,20.42
2018-07-06T12:37:53.775Z,20.47
2018-07-06T12:40:24.146Z,20.29
2018-07-06T12:42:54.840Z,20.28
2018-07-06T12:45:25.334Z,20.18
2018-07-06T12:47:55.651Z,20.15
2018-07-06T12:50:26.289Z,20.14
2018-07-06T12:52:57.362Z,20.05
2018-07-06T12:55:28.117Z,19.98
2018-07-06T12:57:58.710Z,19.93
2018-07-06T13:00:29.502Z,19.90
2018-07-06T13:03:00.195Z,19.88
2018-07-06T13:05:30.950Z,19.84
2018-07-06T13:08:01.619Z,19.87
2018-07-06T13:10:31.759Z,19.78
2018-07-06T13:13:02.482Z,19.78
2018-07-06T13:15:33.453Z,19.78
2018-07-06T13:18:03.505Z,19.74
2018-07-06T13:20:34.125Z,19.77
2018-07-06T13:23:05.188Z,19.87
2018-07-06T13:25:36.090Z,19.94
2018-07-06T13:28:06.416Z,20.00
2018-07-06T13:30:36.823Z,20.11
2018-07-06T13:33:07.360Z,20.18
2018-07-06T13:35:37.837Z,20.23
2018-07-06T13:38:08.549Z,20.24
2018-07-06T13:40:38.936Z,20.33
2018-07-06T13:43:09.921Z,20.43
2018-07-06T13:45:40.349Z,20.45
2018-07-06T13:48:10.600Z,20.42
2018-07-06T13:50:41.529Z,20.36
2018-07-06T13:53:12.263Z,20.32
2018-07-06T13:55:42.937Z,20.26
2018-07-06T13:58:13.543Z,20.21
2018-07-06T14:00:43.975Z,20.22
2018-07-06T14:03:13.932Z,20.15
2018-07-06T14:05:44.454Z,20.13
2018-07-06T14:08:15.073Z,20.14
2018-07-06T14:10:45.736Z,20.20
2018-07-06T14:13:16.305Z,20.26
2018-07-06T14:15:47.018Z,20.29
2018-07-06T14:18:17.899Z,20.34
2018-07-06T14:20:47.885Z,20.29
2018-07-06T14:23:18.515Z,20.32
2018-07-06T14:25:48.553Z,20.33
2018-07-06T14:28:19.435Z,20.31
2018-07-06T14:30:50.201Z,20.31
2018-07-06T14:33:20.945Z,20.31
2018-07-06T14:35:51.275Z,20.32
2018-07-06T14:38:21.606Z,20.23
2018-07-06T14:40:52.349Z,20.12
2018-07-06T14:43:23.062Z,20.09
2018-07-06T14:45:53.516Z,20.01
2018-07-06T14:48:24.146Z,19.98
2018-07-06T14:50:54.600Z,19.99
2018-07-06T14:53:25.104Z,19.94
2018-07-06T14:55:56.099Z,19.94
2018-07-06T14:58:26.292Z,20.00
2018-07-06T15:00:56.690Z,19.98
2018-07-06T15:03:27.272Z,20.01
2018-07-06T15:05:58.086Z,20.03
2018-07-06T15:08:28.775Z,19.99
2018-07-06T15:10:59.522Z,20.04
2018-07-06T15:13:30.147Z,20.13
2018-07-06T15:16:02.067Z,20.10
2018-07-06T15:18:32.638Z,20.19
2018-07-06T15:21:03.715Z,20.23
2018-07-06T15:23:34.064Z,20.25
2018-07-06T15:26:04.530Z,20.27
2018-07-06T15:28:35.225Z,20.28
2018-07-06T15:31:05.927Z,20.32
2018-07-06T15:33:36.513Z,20.37
2018-07-06T15:36:07.423Z,20.36
2018-07-06T15:38:37.352Z,20.32
2018-07-06T15:41:08.321Z,20.30
2018-07-06T15:43:38.780Z,20.23
2018-07-06T15:46:09.842Z,20.19
2018-07-06T15:48:40.379Z,20.18
2018-07-06T15:51:10.997Z,20.15
2018-07-06T15:53:41.505Z,20.13
2018-07-06T15:56:12.212Z,20.13
2018-07-06T15:58:43.050Z,20.13
2018-07-06T16:01:13.483Z,20.15
2018-07-06T16:03:44.107Z,20.16
2018-07-06T16:06:14.839Z,20.13
2018-07-06T16:08:45.976Z,20.10
2018-07-06T16:11:16.729Z,20.11
2018-07-06T16:13:47.392Z,20.09
2018-07-06T16:16:18.754Z,20.01
2018-07-06T16:18:49.365Z,20.00
2018-07-06T16:21:19.790Z,19.99
2018-07-06T16:23:50.255Z,19.96
2018-07-06T16:26:21.335Z,19.92
2018-07-06T16:28:55.348Z,19.90
2018-07-06T16:31:25.950Z,19.88
2018-07-06T16:33:57.149Z,19.81
2018-07-06T16:36:27.150Z,19.79
2018-07-06T16:38:58.030Z,19.76
2018-07-06T16:41:28.842Z,19.72
2018-07-06T16:43:59.600Z,19.70
2018-07-06T16:46:30.034Z,19.68
2018-07-06T16:49:01.092Z,19.72
2018-07-06T16:51:31.509Z,19.75
2018-07-06T16:54:01.313Z,19.76
2018-07-06T16:56:31.795Z,19.76
2018-07-06T16:59:02.688Z,19.79
2018-07-06T17:01:33.240Z,19.71
2018-07-06T17:04:03.133Z,19.68
2018-07-06T17:06:34.131Z,19.65
2018-07-06T17:09:05.911Z,19.65
2018-07-06T17:11:36.838Z,19.65
2018-07-06T17:14:07.539Z,19.70
2018-07-06T17:16:37.993Z,19.73
2018-07-06T17:19:08.614Z,19.74
2018-07-06T17:21:39.546Z,19.73
2018-07-06T17:24:10.679Z,19.77
2018-07-06T17:26:41.014Z,19.78
2018-07-06T17:29:11.744Z,19.82
2018-07-06T17:31:42.288Z,19.82
2018-07-06T17:34:13.009Z,19.84
2018-07-06T17:36:43.838Z,19.80
2018-07-06T17:39:14.235Z,19.85
2018-07-06T17:41:45.045Z,19.91
2018-07-06T17:44:16.244Z,19.94
2018-07-06T17:46:46.823Z,19.96
2018-07-06T17:49:17.174Z,19.99
2018-07-06T17:51:47.760Z,20.03
2018-07-06T17:54:18.460Z,20.07
2018-07-06T17:56:48.907Z,20.04
2018-07-06T17:59:20.771Z,20.02
2018-07-06T18:01:51.507Z,20.01
2018-07-06T18:04:22.308Z,20.00
2018-07-06T18:06:52.810Z,19.97
2018-07-06T18:09:23.658Z,19.95
2018-07-06T18:11:54.292Z,19.98
2018-07-06T18:14:25.761Z,19.99
2018-07-06T18:16:56.526Z,20.00
2018-07-06T18:19:28.692Z,19.95
2018-07-06T18:21:59.267Z,19.86
2018-07-06T18:24:30.232Z,19.92
2018-07-06T18:27:00.665Z,19.87
2018-07-06T18:29:31.492Z,19.85
2018-07-06T18:32:02.397Z,19.83
2018-07-06T18:34:33.127Z,19.78
2018-07-06T18:37:03.837Z,19.77
2018-07-06T18:39:34.567Z,19.72
2018-07-06T18:42:04.786Z,19.69
2018-07-06T18:44:34.726Z,19.62
2018-07-06T18:47:05.745Z,19.59
2018-07-06T18:49:36.130Z,19.52
2018-07-06T18:52:06.810Z,19.45
2018-07-06T18:54:38.002Z,19.41
2018-07-06T18:57:08.919Z,19.37
2018-07-06T18:59:39.483Z,19.34
2018-07-06T19:04:55.223Z,19.26
2018-07-06T19:07:25.533Z,19.25
2018-07-06T19:09:56.620Z,19.21
2018-07-06T19:12:29.776Z,19.14
2018-07-06T19:15:00.181Z,19.09
2018-07-06T19:17:30.961Z,19.05
2018-07-06T19:20:02.338Z,19.05
2018-07-06T19:22:33.296Z,19.05
2018-07-06T19:25:04.190Z,19.01
2018-07-06T19:27:34.938Z,19.00
2018-07-06T19:30:05.683Z,18.98
2018-07-06T19:32:36.495Z,18.96
2018-07-06T19:35:07.172Z,18.96
2018-07-06T19:37:37.675Z,18.95
2018-07-06T19:40:08.170Z,18.95
2018-07-06T19:42:38.972Z,18.96
2018-07-06T19:45:09.416Z,18.99
2018-07-06T19:47:39.591Z,19.02
2018-07-06T19:50:10.312Z,18.99
2018-07-06T19:52:41.031Z,18.99
2018-07-06T19:55:11.846Z,18.96
2018-07-06T19:57:42.612Z,18.96
2018-07-06T20:00:13.273Z,18.89
2018-07-06T20:02:45.068Z,18.85
2018-07-06T20:05:15.810Z,18.86
2018-07-06T20:07:46.923Z,18.84
2018-07-06T20:10:17.155Z,18.80
2018-07-06T20:12:47.954Z,18.75
2018-07-06T20:15:18.680Z,18.72
2018-07-06T20:17:49.438Z,18.61
2018-07-06T20:20:19.990Z,18.58
2018-07-06T20:22:50.459Z,18.54
2018-07-06T20:25:21.592Z,18.45
2018-07-06T20:27:52.334Z,18.40
2018-07-06T20:30:23.089Z,18.30
2018-07-06T20:32:53.749Z,18.16
2018-07-06T20:35:23.992Z,18.03
2018-07-06T20:37:54.814Z,17.92
2018-07-06T20:40:25.193Z,17.80
2018-07-06T20:42:55.478Z,17.63
2018-07-06T20:45:26.545Z,17.56
2018-07-06T20:47:57.293Z,17.44
2018-07-06T20:50:28.236Z,17.39
2018-07-06T20:52:58.831Z,17.32
2018-07-06T20:55:30.605Z,17.24
2018-07-06T20:58:01.455Z,17.23
2018-07-06T21:00:32.225Z,17.21
2018-07-06T21:03:02.837Z,17.09
2018-07-06T21:05:33.348Z,17.04
2018-07-06T21:08:03.817Z,16.99
2018-07-06T21:10:34.808Z,16.88
2018-07-06T21:13:05.678Z,16.81
2018-07-06T21:15:36.620Z,16.79
2018-07-06T21:18:07.779Z,16.79
2018-07-06T21:20:38.633Z,16.77
2018-07-06T21:23:09.424Z,16.71
2018-07-06T21:25:40.483Z,16.68
2018-07-06T21:28:11.566Z,16.67
2018-07-06T21:30:42.185Z,16.66
2018-07-06T21:33:12.157Z,16.65
2018-07-06T21:35:42.625Z,16.65
2018-07-06T21:38:13.634Z,16.61
2018-07-06T21:40:44.571Z,16.58
2018-07-06T21:43:30.041Z,16.61
2018-07-06T21:46:01.081Z,16.63
2018-07-06T21:48:31.040Z,16.63
2018-07-06T21:51:01.785Z,16.65
2018-07-06T21:53:33.282Z,16.65
2018-07-06T21:56:03.824Z,16.64
2018-07-06T21:58:34.845Z,16.65
2018-07-06T22:01:06.163Z,16.69
2018-07-06T22:03:36.976Z,16.65
2018-07-06T22:06:07.654Z,16.65
2018-07-06T22:08:38.219Z,16.61
2018-07-06T22:11:08.730Z,16.58
2018-07-06T22:13:39.285Z,16.55
2018-07-06T22:16:09.907Z,16.53
2018-07-06T22:18:40.269Z,16.51
2018-07-06T22:21:10.522Z,16.51
2018-07-06T22:23:40.413Z,16.50
2018-07-06T22:26:10.784Z,16.49
2018-07-06T22:28:41.446Z,16.52
2018-07-06T22:31:12.298Z,16.51
2018-07-06T22:33:42.996Z,16.50
2018-07-06T22:36:13.762Z,16.51
2018-07-06T22:38:44.333Z,16.51
2018-07-06T22:41:14.831Z,16.53
2018-07-06T22:43:45.845Z,16.57
2018-07-06T22:46:16.392Z,16.58
2018-07-06T22:48:47.281Z,16.59
2018-07-06T22:51:18.150Z,16.59
2018-07-06T22:53:48.077Z,16.59
2018-07-06T22:56:18.390Z,16.60
2018-07-06T22:58:48.963Z,16.58
2018-07-06T23:01:21.016Z,16.55
2018-07-06T23:03:51.438Z,16.57
2018-07-06T23:06:22.193Z,16.54
2018-07-06T23:08:52.819Z,16.53
2018-07-06T23:11:23.509Z,16.54
2018-07-06T23:13:54.296Z,16.52
2018-07-06T23:16:24.903Z,16.50
2018-07-06T23:18:55.535Z,16.48
2018-07-06T23:21:26.402Z,16.44
2018-07-06T23:23:57.333Z,16.41
2018-07-06T23:26:27.929Z,16.42
2018-07-06T23:28:58.568Z,16.40
2018-07-06T23:31:29.244Z,16.41
2018-07-06T23:34:00.313Z,16.41
2018-07-06T23:36:30.607Z,16.40
2018-07-06T23:39:01.393Z,16.37
2018-07-06T23:41:31.968Z,16.37
2018-07-06T23:44:02.339Z,16.34
2018-07-06T23:46:32.948Z,16.34
2018-07-06T23:49:03.473Z,16.29
2018-07-06T23:51:34.038Z,16.30
2018-07-06T23:54:04.660Z,16.31
2018-07-06T23:56:35.528Z,16.29
2018-07-06T23:59:06.012Z,16.25
